createdAt,value
2019-03-30T00:01:09.791Z,21.96
2019-03-30T00:03:40.571Z,21.99
2019-03-30T00:06:11.356Z,21.98
2019-03-30T00:08:42.085Z,21.98
2019-03-30T00:11:12.854Z,21.97
2019-03-30T00:13:43.755Z,21.99
2019-03-30T00:16:14.513Z,22.02
2019-03-30T00:18:45.303Z,22.00
2019-03-30T00:21:16.057Z,21.97
2019-03-30T00:23:47.207Z,21.99
2019-03-30T00:26:18.026Z,22.00
2019-03-30T00:28:48.872Z,21.98
2019-03-30T00:31:19.721Z,21.99
2019-03-30T00:33:50.510Z,21.98
2019-03-30T00:36:21.290Z,21.98
2019-03-30T00:38:52.079Z,21.97
2019-03-30T00:41:22.887Z,21.97
2019-03-30T00:43:53.636Z,21.99
2019-03-30T00:46:24.392Z,21.98
2019-03-30T00:48:56.252Z,21.97
2019-03-30T00:51:27.096Z,22.00
2019-03-30T00:53:57.912Z,21.95
2019-03-30T00:56:28.691Z,21.96
2019-03-30T00:59:00.611Z,21.97
2019-03-30T01:01:31.358Z,21.97
2019-03-30T01:04:02.129Z,21.93
2019-03-30T01:06:32.970Z,21.95
2019-03-30T01:09:04.401Z,21.95
2019-03-30T01:11:35.431Z,21.97
2019-03-30T01:14:06.239Z,21.94
2019-03-30T01:16:37.116Z,21.94
2019-03-30T01:19:07.951Z,21.95
2019-03-30T01:21:38.781Z,21.96
2019-03-30T01:24:09.501Z,21.95
2019-03-30T01:26:40.369Z,21.95
2019-03-30T01:29:11.112Z,21.97
2019-03-30T01:31:42.922Z,21.95
2019-03-30T01:34:14.558Z,21.95
2019-03-30T01:36:45.551Z,21.94
2019-03-30T01:39:16.274Z,21.97
2019-03-30T01:41:47.051Z,21.97
2019-03-30T01:44:17.810Z,21.97
2019-03-30T01:46:48.678Z,21.97
2019-03-30T01:49:19.550Z,21.95
2019-03-30T01:51:50.277Z,21.96
2019-03-30T01:54:21.134Z,21.97
2019-03-30T01:56:52.065Z,21.96
2019-03-30T01:59:22.927Z,21.96
2019-03-30T02:01:53.810Z,21.96
2019-03-30T02:04:24.805Z,21.93
2019-03-30T02:06:55.592Z,21.96
2019-03-30T02:09:26.328Z,21.94
2019-03-30T02:11:57.058Z,21.95
2019-03-30T02:14:27.994Z,21.96
2019-03-30T02:16:58.800Z,21.95
2019-03-30T02:19:31.887Z,21.96
2019-03-30T02:22:02.724Z,21.96
2019-03-30T02:24:33.687Z,21.93
2019-03-30T02:27:05.521Z,21.93
2019-03-30T02:29:36.577Z,21.91
2019-03-30T02:32:07.567Z,21.89
2019-03-30T02:34:38.373Z,21.90
2019-03-30T02:37:09.162Z,21.89
2019-03-30T02:39:39.961Z,21.90
2019-03-30T02:42:10.803Z,21.93
2019-03-30T02:44:41.542Z,21.89
2019-03-30T02:47:12.340Z,21.90
2019-03-30T02:49:44.167Z,21.90
2019-03-30T02:52:15.281Z,21.93
2019-03-30T02:54:46.274Z,21.88
2019-03-30T02:57:17.126Z,21.91
2019-03-30T02:59:47.923Z,21.89
2019-03-30T03:02:19.910Z,21.90
2019-03-30T03:04:50.788Z,21.88
2019-03-30T03:07:21.576Z,21.88
2019-03-30T03:09:52.307Z,21.90
2019-03-30T03:12:23.062Z,21.86
2019-03-30T03:14:54.040Z,21.87
2019-03-30T03:17:24.791Z,21.89
2019-03-30T03:19:55.609Z,21.87
2019-03-30T03:22:26.357Z,21.90
2019-03-30T03:24:57.136Z,21.88
2019-03-30T03:27:27.940Z,21.87
2019-03-30T03:29:58.762Z,21.85
2019-03-30T03:32:29.549Z,21.88
2019-03-30T03:35:00.795Z,21.84
2019-03-30T03:37:44.634Z,21.87
2019-03-30T03:40:08.016Z,21.85
2019-03-30T03:42:39.720Z,21.87
2019-03-30T03:45:10.935Z,21.86
2019-03-30T03:47:41.660Z,21.87
2019-03-30T03:50:33.698Z,21.87
2019-03-30T03:53:05.471Z,21.92
2019-03-30T03:55:36.631Z,21.91
2019-03-30T03:58:07.435Z,21.90
2019-03-30T04:00:38.276Z,21.89
2019-03-30T04:03:09.545Z,21.87
2019-03-30T04:05:42.351Z,21.85
2019-03-30T04:08:14.330Z,21.88
2019-03-30T04:10:48.166Z,21.86
2019-03-30T04:13:18.965Z,21.83
2019-03-30T04:15:49.704Z,21.80
2019-03-30T04:18:20.579Z,21.81
2019-03-30T04:20:52.511Z,21.77
2019-03-30T04:23:23.303Z,21.76
2019-03-30T04:25:54.128Z,21.76
2019-03-30T04:28:24.943Z,21.75
2019-03-30T04:30:55.704Z,21.77
2019-03-30T04:33:26.527Z,21.77
2019-03-30T04:35:57.703Z,21.75
2019-03-30T04:38:28.496Z,21.75
2019-03-30T04:40:59.264Z,21.73
2019-03-30T04:43:30.134Z,21.76
2019-03-30T04:46:01.001Z,21.74
2019-03-30T04:48:31.868Z,21.75
2019-03-30T04:51:02.630Z,21.75
2019-03-30T04:53:33.522Z,21.74
2019-03-30T04:56:04.331Z,21.74
2019-03-30T04:58:36.193Z,21.75
2019-03-30T05:01:06.994Z,21.73
2019-03-30T05:03:39.571Z,21.73
2019-03-30T05:06:10.378Z,21.70
2019-03-30T05:08:41.171Z,21.72
2019-03-30T05:11:13.624Z,21.70
2019-03-30T05:13:44.417Z,21.71
2019-03-30T05:16:15.197Z,21.73
2019-03-30T05:18:45.991Z,21.71
2019-03-30T05:21:16.791Z,21.72
2019-03-30T05:23:49.067Z,21.72
2019-03-30T05:26:19.922Z,21.73
2019-03-30T05:28:50.716Z,21.68
2019-03-30T05:31:22.039Z,21.69
2019-03-30T05:33:52.851Z,21.69
2019-03-30T05:36:23.618Z,21.72
2019-03-30T05:38:54.452Z,21.72
2019-03-30T05:41:25.281Z,21.80
2019-03-30T05:43:56.226Z,21.80
2019-03-30T05:46:27.177Z,21.76
2019-03-30T05:48:58.072Z,21.79
2019-03-30T05:51:28.846Z,21.78
2019-03-30T05:53:59.638Z,21.80
2019-03-30T05:56:30.482Z,21.81
2019-03-30T05:59:01.305Z,21.81
2019-03-30T06:01:32.092Z,21.88
2019-03-30T06:04:02.938Z,21.90
2019-03-30T06:06:33.766Z,21.93
2019-03-30T06:09:05.225Z,21.93
2019-03-30T06:11:36.030Z,21.91
2019-03-30T06:14:06.824Z,21.87
2019-03-30T06:16:38.621Z,21.79
2019-03-30T06:19:09.475Z,21.78
2019-03-30T06:21:40.236Z,21.79
2019-03-30T06:24:11.002Z,21.81
2019-03-30T06:26:41.792Z,21.85
2019-03-30T06:29:12.634Z,21.85
2019-03-30T06:31:46.607Z,21.84
2019-03-30T06:34:15.824Z,21.83
2019-03-30T06:36:46.624Z,21.86
2019-03-30T06:39:17.461Z,21.91
2019-03-30T06:41:48.351Z,21.94
2019-03-30T06:44:19.092Z,21.92
2019-03-30T06:46:49.888Z,21.90
2019-03-30T06:49:20.665Z,21.88
2019-03-30T06:51:51.424Z,21.88
2019-03-30T06:54:22.199Z,21.88
2019-03-30T06:56:53.004Z,21.87
2019-03-30T06:59:23.747Z,21.89
2019-03-30T07:01:54.604Z,21.91
2019-03-30T07:04:25.367Z,21.89
2019-03-30T07:06:56.174Z,21.92
2019-03-30T07:09:26.986Z,21.91
2019-03-30T07:11:58.449Z,21.93
2019-03-30T07:14:29.795Z,21.94
2019-03-30T07:17:01.836Z,21.94
2019-03-30T07:19:33.793Z,21.96
2019-03-30T07:22:04.691Z,21.95
2019-03-30T07:24:35.460Z,21.93
2019-03-30T07:27:06.195Z,21.96
2019-03-30T07:29:36.996Z,21.98
2019-03-30T07:32:07.850Z,21.94
2019-03-30T07:34:41.706Z,21.97
2019-03-30T07:37:12.493Z,21.96
2019-03-30T07:39:43.305Z,22.00
2019-03-30T07:42:14.124Z,22.03
2019-03-30T07:44:44.916Z,22.02
2019-03-30T07:47:15.675Z,21.99
2019-03-30T07:49:46.500Z,22.00
2019-03-30T07:52:17.319Z,22.00
2019-03-30T07:54:48.140Z,22.01
2019-03-30T07:57:18.907Z,22.00
2019-03-30T07:59:49.780Z,22.04
2019-03-30T08:02:20.567Z,22.04
2019-03-30T08:04:51.339Z,22.05
2019-03-30T08:07:22.141Z,22.08
2019-03-30T08:09:52.884Z,22.07
2019-03-30T08:12:24.819Z,22.08
2019-03-30T08:14:55.638Z,22.14
2019-03-30T08:17:26.383Z,22.09
2019-03-30T08:19:57.308Z,22.04
2019-03-30T08:22:28.117Z,22.02
2019-03-30T08:24:58.854Z,22.05
2019-03-30T08:27:29.648Z,22.09
2019-03-30T08:30:00.492Z,22.07
2019-03-30T08:32:31.302Z,22.02
2019-03-30T08:35:02.141Z,22.02
2019-03-30T08:37:33.278Z,22.01
2019-03-30T08:40:04.711Z,22.04
2019-03-30T08:42:35.467Z,22.05
2019-03-30T08:45:07.407Z,22.00
2019-03-30T08:47:38.302Z,21.99
2019-03-30T08:50:09.354Z,22.03
2019-03-30T08:52:42.547Z,22.01
2019-03-30T08:55:13.318Z,22.02
2019-03-30T08:57:44.053Z,21.99
2019-03-30T09:00:19.668Z,21.99
2019-03-30T09:02:50.418Z,21.99
2019-03-30T09:05:21.307Z,21.99
2019-03-30T09:07:52.192Z,22.00
2019-03-30T09:10:22.945Z,21.99
2019-03-30T09:12:53.777Z,21.99
2019-03-30T09:15:24.598Z,22.00
2019-03-30T09:17:55.478Z,22.02
2019-03-30T09:20:28.184Z,22.00
2019-03-30T09:22:59.092Z,22.00
2019-03-30T09:25:29.898Z,22.01
2019-03-30T09:28:00.753Z,22.02
2019-03-30T09:30:31.541Z,21.99
2019-03-30T09:33:02.464Z,22.00
2019-03-30T09:35:33.275Z,22.01
2019-03-30T09:38:04.107Z,22.02
2019-03-30T09:40:35.000Z,22.03
2019-03-30T09:43:05.829Z,22.05
2019-03-30T09:45:37.014Z,22.06
2019-03-30T09:48:07.866Z,22.06
2019-03-30T09:50:38.715Z,22.06
2019-03-30T09:53:09.574Z,22.08
2019-03-30T09:55:40.403Z,22.07
2019-03-30T09:58:11.272Z,22.04
2019-03-30T10:00:42.133Z,22.03
2019-03-30T10:03:12.990Z,22.03
2019-03-30T10:05:43.780Z,22.07
2019-03-30T10:08:14.643Z,22.09
2019-03-30T10:10:45.499Z,22.09
2019-03-30T10:13:16.481Z,22.09
2019-03-30T10:15:47.578Z,22.11
2019-03-30T10:18:18.396Z,22.14
2019-03-30T10:20:49.188Z,22.09
2019-03-30T10:23:20.566Z,22.09
2019-03-30T10:25:51.367Z,22.08
2019-03-30T10:28:23.161Z,22.12
2019-03-30T10:30:56.895Z,22.11
2019-03-30T10:33:27.763Z,22.13
2019-03-30T10:35:58.644Z,22.13
2019-03-30T10:38:29.403Z,22.11
2019-03-30T10:41:00.250Z,22.10
2019-03-30T10:43:30.994Z,22.11
2019-03-30T10:46:04.462Z,22.15
2019-03-30T10:48:35.394Z,22.17
2019-03-30T10:51:06.146Z,22.17
2019-03-30T10:53:37.016Z,22.17
2019-03-30T10:56:07.934Z,22.19
2019-03-30T10:58:40.322Z,22.18
2019-03-30T11:01:11.158Z,22.18
2019-03-30T11:03:43.039Z,22.18
2019-03-30T11:06:13.767Z,22.18
2019-03-30T11:08:44.603Z,22.17
2019-03-30T11:11:15.445Z,22.19
2019-03-30T11:13:46.233Z,22.19
2019-03-30T11:16:17.011Z,22.19
2019-03-30T11:18:47.757Z,22.18
2019-03-30T11:21:18.574Z,22.18
2019-03-30T11:23:49.389Z,22.18
2019-03-30T11:26:20.279Z,22.19
2019-03-30T11:28:51.012Z,22.18
2019-03-30T11:31:21.851Z,22.18
2019-03-30T11:33:52.623Z,22.16
2019-03-30T11:36:24.413Z,22.17
2019-03-30T11:38:55.162Z,22.18
2019-03-30T11:41:25.946Z,22.17
2019-03-30T11:43:56.835Z,22.18
2019-03-30T11:46:27.620Z,22.18
2019-03-30T11:48:58.372Z,22.17
2019-03-30T11:51:29.205Z,22.17
2019-03-30T11:53:59.999Z,22.17
2019-03-30T11:56:30.832Z,22.17
2019-03-30T11:59:01.707Z,22.18
2019-03-30T12:01:32.501Z,22.16
2019-03-30T12:04:03.239Z,22.19
2019-03-30T12:06:34.014Z,22.12
2019-03-30T12:09:06.162Z,22.16
2019-03-30T12:11:38.335Z,22.16
2019-03-30T12:14:09.199Z,22.19
2019-03-30T12:16:39.944Z,22.15
2019-03-30T12:19:10.720Z,22.13
2019-03-30T12:21:41.543Z,22.17
2019-03-30T12:24:12.383Z,22.17
2019-03-30T12:26:43.163Z,22.16
2019-03-30T12:29:15.033Z,22.12
2019-03-30T12:31:47.505Z,22.14
2019-03-30T12:34:18.293Z,22.15
2019-03-30T12:36:49.325Z,22.16
2019-03-30T12:39:20.092Z,22.17
2019-03-30T12:41:50.850Z,22.12
2019-03-30T12:44:21.659Z,22.14
2019-03-30T12:46:52.411Z,22.14
2019-03-30T12:49:23.265Z,22.14
2019-03-30T12:51:54.006Z,22.13
2019-03-30T12:54:24.869Z,22.12
2019-03-30T12:56:55.615Z,22.10
2019-03-30T12:59:26.429Z,22.10
2019-03-30T13:01:57.263Z,22.11
2019-03-30T13:04:28.013Z,22.11
2019-03-30T13:06:58.792Z,22.13
2019-03-30T13:09:29.590Z,22.13
2019-03-30T13:12:00.338Z,22.09
2019-03-30T13:14:31.153Z,22.12
2019-03-30T13:17:01.907Z,22.10
2019-03-30T13:19:32.779Z,22.11
2019-03-30T13:22:03.515Z,22.11
2019-03-30T13:24:34.406Z,22.11
2019-03-30T13:27:05.202Z,22.11
2019-03-30T13:29:36.056Z,22.08
2019-03-30T13:32:06.794Z,22.09
2019-03-30T13:34:37.698Z,22.11
2019-03-30T13:37:16.602Z,22.10
2019-03-30T13:39:47.399Z,22.08
2019-03-30T13:42:18.243Z,22.08
2019-03-30T13:44:48.978Z,22.07
2019-03-30T13:47:19.746Z,22.08
2019-03-30T13:49:50.797Z,22.09
2019-03-30T13:52:21.537Z,22.08
2019-03-30T13:54:52.379Z,22.08
2019-03-30T13:57:23.133Z,22.08
2019-03-30T13:59:53.935Z,22.08
2019-03-30T14:02:24.737Z,22.08
2019-03-30T14:04:55.575Z,22.06
2019-03-30T14:07:26.328Z,22.05
2019-03-30T14:09:57.082Z,22.06
2019-03-30T14:12:27.797Z,22.06
2019-03-30T14:14:58.565Z,22.06
2019-03-30T14:17:29.390Z,22.06
2019-03-30T14:20:00.406Z,22.05
2019-03-30T14:22:31.239Z,22.05
2019-03-30T14:25:02.162Z,22.03
2019-03-30T14:27:32.948Z,22.05
2019-03-30T14:30:03.768Z,22.04
2019-03-30T14:32:34.648Z,22.02
2019-03-30T14:35:05.599Z,22.03
2019-03-30T14:37:36.371Z,22.03
2019-03-30T14:40:07.923Z,22.02
2019-03-30T14:42:38.865Z,22.01
2019-03-30T14:45:09.575Z,21.99
2019-03-30T14:47:40.412Z,21.99
2019-03-30T14:50:11.148Z,22.00
2019-03-30T14:52:41.960Z,21.98
2019-03-30T14:55:12.755Z,21.99
2019-03-30T14:57:43.625Z,21.99
2019-03-30T15:00:14.450Z,22.00
2019-03-30T15:02:45.237Z,22.00
2019-03-30T15:05:15.996Z,21.98
2019-03-30T15:07:46.780Z,21.97
2019-03-30T15:10:18.155Z,21.97
2019-03-30T15:12:50.107Z,21.97
2019-03-30T15:15:20.860Z,21.95
2019-03-30T15:17:51.648Z,21.95
2019-03-30T15:20:22.389Z,21.94
2019-03-30T15:22:55.198Z,21.95
2019-03-30T15:25:25.923Z,21.95
2019-03-30T15:27:56.832Z,21.93
2019-03-30T15:30:27.648Z,21.92
2019-03-30T15:32:58.415Z,21.92
2019-03-30T15:35:29.277Z,21.90
2019-03-30T15:38:00.121Z,21.90
2019-03-30T15:40:30.881Z,21.88
2019-03-30T15:43:01.722Z,21.86
2019-03-30T15:45:32.531Z,21.87
2019-03-30T15:48:03.810Z,21.86
2019-03-30T15:50:34.569Z,21.87
2019-03-30T15:53:05.351Z,21.84
2019-03-30T15:55:36.299Z,21.82
2019-03-30T15:58:07.077Z,21.81
2019-03-30T16:00:37.893Z,21.80
2019-03-30T16:03:08.724Z,21.80
2019-03-30T16:05:39.512Z,21.78
2019-03-30T16:08:10.265Z,21.77
2019-03-30T16:10:41.079Z,21.79
2019-03-30T16:13:14.599Z,21.76
2019-03-30T16:15:44.621Z,21.76
2019-03-30T16:18:15.567Z,21.73
2019-03-30T16:20:46.341Z,21.70
2019-03-30T16:23:17.086Z,21.69
2019-03-30T16:25:50.125Z,21.67
2019-03-30T16:28:20.883Z,21.65
2019-03-30T16:30:51.646Z,21.65
2019-03-30T16:33:22.414Z,21.65
2019-03-30T16:35:53.375Z,21.65
2019-03-30T16:38:24.126Z,21.64
2019-03-30T16:40:57.010Z,21.64
2019-03-30T16:43:27.816Z,21.62
2019-03-30T16:45:58.578Z,21.61
2019-03-30T16:48:29.406Z,21.62
2019-03-30T16:51:00.224Z,21.60
2019-03-30T16:53:31.336Z,21.61
2019-03-30T16:56:02.155Z,21.62
2019-03-30T16:58:32.974Z,21.61
2019-03-30T17:01:03.750Z,21.59
2019-03-30T17:03:34.584Z,21.60
2019-03-30T17:06:05.403Z,21.57
2019-03-30T17:08:36.151Z,21.57
2019-03-30T17:11:06.932Z,21.58
2019-03-30T17:13:37.792Z,21.57
2019-03-30T17:16:08.664Z,21.56
2019-03-30T17:18:40.420Z,21.55
2019-03-30T17:21:11.646Z,21.55
2019-03-30T17:23:42.550Z,21.55
2019-03-30T17:26:13.398Z,21.56
2019-03-30T17:28:44.198Z,21.56
2019-03-30T17:31:15.090Z,21.57
2019-03-30T17:33:45.991Z,21.56
2019-03-30T17:36:16.693Z,21.56
2019-03-30T17:38:47.500Z,21.56
2019-03-30T17:41:18.225Z,21.54
2019-03-30T17:43:49.002Z,21.55
2019-03-30T17:46:19.786Z,21.56
2019-03-30T17:48:51.555Z,21.58
2019-03-30T17:51:22.388Z,21.58
2019-03-30T17:53:53.418Z,21.57
2019-03-30T17:56:24.207Z,21.56
2019-03-30T17:58:54.979Z,21.61
2019-03-30T18:01:25.782Z,21.59
2019-03-30T18:03:57.664Z,21.61
2019-03-30T18:06:28.411Z,21.61
2019-03-30T18:08:59.254Z,21.61
2019-03-30T18:11:30.354Z,21.62
2019-03-30T18:14:01.042Z,21.61
2019-03-30T18:16:42.683Z,21.62
2019-03-30T18:19:14.054Z,21.63
2019-03-30T18:21:44.798Z,21.63
2019-03-30T18:24:15.533Z,21.64
2019-03-30T18:26:46.428Z,21.64
2019-03-30T18:29:17.223Z,21.63
2019-03-30T18:31:48.060Z,21.60
2019-03-30T18:34:18.799Z,21.60
2019-03-30T18:36:50.358Z,21.60
2019-03-30T18:39:21.257Z,21.62
2019-03-30T18:41:52.019Z,21.63
2019-03-30T18:44:22.772Z,21.63
2019-03-30T18:46:53.553Z,21.64
2019-03-30T18:49:24.372Z,21.65
2019-03-30T18:51:55.282Z,21.66
2019-03-30T18:54:26.381Z,21.65
2019-03-30T18:56:57.111Z,21.65
2019-03-30T18:59:27.935Z,21.68
2019-03-30T19:01:58.700Z,21.66
2019-03-30T19:04:29.922Z,21.68
2019-03-30T19:07:00.780Z,21.67
2019-03-30T19:09:31.699Z,21.67
2019-03-30T19:12:02.440Z,21.68
2019-03-30T19:14:33.294Z,21.69
2019-03-30T19:17:04.144Z,21.70
2019-03-30T19:19:36.362Z,21.69
2019-03-30T19:22:07.430Z,21.68
2019-03-30T19:24:39.681Z,21.68
2019-03-30T19:27:10.505Z,21.70
2019-03-30T19:29:41.728Z,21.71
2019-03-30T19:32:12.556Z,21.71
2019-03-30T19:34:43.471Z,21.70
2019-03-30T19:37:14.353Z,21.73
2019-03-30T19:39:46.216Z,21.73
2019-03-30T19:42:17.066Z,21.72
2019-03-30T19:44:47.861Z,21.71
2019-03-30T19:47:19.452Z,21.71
2019-03-30T19:49:50.255Z,21.72
2019-03-30T19:52:21.567Z,21.73
2019-03-30T19:54:52.389Z,21.73
2019-03-30T19:57:27.464Z,21.74
2019-03-30T19:59:57.798Z,21.75
2019-03-30T20:02:31.870Z,21.75
2019-03-30T20:05:02.732Z,21.77
2019-03-30T20:07:34.685Z,21.74
2019-03-30T20:10:06.493Z,21.76
2019-03-30T20:12:38.136Z,21.76
2019-03-30T20:15:09.012Z,21.76
2019-03-30T20:17:39.858Z,21.75
2019-03-30T20:20:10.592Z,21.77
2019-03-30T20:22:41.650Z,21.77
2019-03-30T20:25:12.480Z,21.79
2019-03-30T20:27:43.316Z,21.83
2019-03-30T20:30:14.155Z,21.84
2019-03-30T20:32:46.911Z,21.87
2019-03-30T20:35:17.667Z,21.84
2019-03-30T20:37:48.545Z,21.86
2019-03-30T20:40:19.420Z,21.87
2019-03-30T20:42:50.247Z,21.86
2019-03-30T20:45:21.165Z,21.86
2019-03-30T20:47:51.935Z,21.86
2019-03-30T20:50:22.767Z,21.85
2019-03-30T20:52:53.560Z,21.87
2019-03-30T20:55:24.437Z,21.85
2019-03-30T20:57:55.328Z,21.87
2019-03-30T21:00:27.262Z,21.87
2019-03-30T21:02:58.118Z,21.87
2019-03-30T21:05:28.941Z,21.90
2019-03-30T21:07:59.804Z,21.90
2019-03-30T21:10:30.708Z,21.88
2019-03-30T21:13:01.672Z,21.79
2019-03-30T21:15:32.414Z,21.76
2019-03-30T21:18:04.275Z,21.77
2019-03-30T21:20:35.115Z,21.81
2019-03-30T21:23:05.943Z,21.82
2019-03-30T21:25:38.974Z,21.82
2019-03-30T21:28:09.952Z,21.84
2019-03-30T21:30:40.749Z,21.83
2019-03-30T21:33:11.570Z,21.83
2019-03-30T21:35:42.443Z,21.83
2019-03-30T21:38:13.454Z,21.85
2019-03-30T21:40:44.267Z,21.86
2019-03-30T21:43:15.134Z,21.86
2019-03-30T21:45:45.973Z,21.88
2019-03-30T21:48:16.961Z,21.86
2019-03-30T21:50:47.775Z,21.86
2019-03-30T21:53:18.540Z,21.84
2019-03-30T21:55:49.335Z,21.86
2019-03-30T21:58:20.119Z,21.86
2019-03-30T22:00:50.864Z,21.85
2019-03-30T22:03:21.652Z,21.81
2019-03-30T22:05:52.420Z,21.87
2019-03-30T22:08:23.175Z,21.88
2019-03-30T22:10:53.923Z,21.90
2019-03-30T22:13:25.817Z,21.91
2019-03-30T22:15:56.622Z,21.93
2019-03-30T22:18:27.441Z,21.93
2019-03-30T22:20:58.190Z,21.90
2019-03-30T22:23:28.932Z,21.87
2019-03-30T22:25:59.761Z,21.87
2019-03-30T22:28:30.543Z,21.86
2019-03-30T22:31:02.662Z,21.86
2019-03-30T22:33:33.411Z,21.82
2019-03-30T22:36:04.160Z,21.80
2019-03-30T22:38:34.955Z,21.79
2019-03-30T22:41:05.768Z,21.80
2019-03-30T22:43:37.652Z,21.78
2019-03-30T22:46:08.409Z,21.81
2019-03-30T22:48:39.235Z,21.83
2019-03-30T22:51:10.004Z,21.81
2019-03-30T22:53:40.820Z,21.80
2019-03-30T22:56:11.583Z,21.81
2019-03-30T22:58:42.489Z,21.87
2019-03-30T23:01:15.631Z,21.91
2019-03-30T23:03:47.993Z,21.84
2019-03-30T23:06:18.736Z,21.79
2019-03-30T23:08:49.556Z,21.84
2019-03-30T23:11:20.346Z,21.83
2019-03-30T23:13:51.076Z,21.85
2019-03-30T23:16:21.860Z,21.76
2019-03-30T23:18:52.634Z,21.72
2019-03-30T23:21:24.506Z,21.73
2019-03-30T23:23:55.262Z,21.72
2019-03-30T23:26:26.116Z,21.75
2019-03-30T23:28:59.379Z,21.74
2019-03-30T23:31:29.566Z,21.74
2019-03-30T23:34:00.323Z,21.74
2019-03-30T23:36:38.272Z,21.78
2019-03-30T23:39:09.754Z,21.78
2019-03-30T23:41:40.648Z,21.76
2019-03-30T23:44:11.538Z,21.74
2019-03-30T23:46:42.346Z,21.75
2019-03-30T23:49:13.209Z,21.75
2019-03-30T23:51:43.979Z,21.76
2019-03-30T23:54:16.482Z,21.71
2019-03-30T23:56:47.258Z,21.67
2019-03-30T23:59:19.093Z,21.66
